Terminal Aerodrome Forecast
Issued by NWS

Home | Current Version | Previous Version | Text Only | Print | Product List | Glossary On
Versions: 1 2 3 4 5 6 7 8 9 10 11 12 13 14 15 16 17 18
000
FTUS42 KFFC 260249 AAA
TAFRYY
TAF AMD
KRYY 260249Z 2603/2624 13005KT P6SM VCSH BKN012 BKN040
     FM260800 14004KT P6SM OVC007
     FM261500 15005KT P6SM OVC012
     FM261700 16007KT P6SM -SHRA OVC025
      TEMPO 2620/2624 3SM TSRA BR OVC015CB
      AMD NOT SKED 2604/2612=

USA.gov is the U.S. government's official web portal to all federal, state and local government web resources and services.